sensor_id;sensor_type;location;lat;lon;timestamp;P1;durP1;ratioP1;P2;durP2;ratioP2
21517;SDS011;61765;45.794;24.150;2023-04-03T00:02:47;11.80;;;8.80;;
21517;SDS011;61765;45.794;24.150;2023-04-03T00:10:53;12.57;;;9.18;;
21517;SDS011;61765;45.794;24.150;2023-04-03T00:19:01;11.88;;;8.65;;
21517;SDS011;61765;45.794;24.150;2023-04-03T00:27:07;15.70;;;9.75;;
21517;SDS011;61765;45.794;24.150;2023-04-03T00:35:16;12.93;;;9.70;;
21517;SDS011;61765;45.794;24.150;2023-04-03T00:43:23;13.70;;;10.65;;
21517;SDS011;61765;45.794;24.150;2023-04-03T00:51:32;14.73;;;9.10;;
21517;SDS011;61765;45.794;24.150;2023-04-03T00:59:38;13.88;;;9.15;;
21517;SDS011;61765;45.794;24.150;2023-04-03T01:07:49;13.52;;;9.70;;
21517;SDS011;61765;45.794;24.150;2023-04-03T01:15:55;14.20;;;10.15;;
21517;SDS011;61765;45.794;24.150;2023-04-03T01:24:10;11.70;;;8.38;;
21517;SDS011;61765;45.794;24.150;2023-04-03T01:32:29;10.43;;;7.22;;
21517;SDS011;61765;45.794;24.150;2023-04-03T01:40:40;10.20;;;7.20;;
21517;SDS011;61765;45.794;24.150;2023-04-03T01:49:32;9.85;;;7.18;;
21517;SDS011;61765;45.794;24.150;2023-04-03T01:58:15;10.50;;;7.57;;
21517;SDS011;61765;45.794;24.150;2023-04-03T02:06:25;12.05;;;7.70;;
21517;SDS011;61765;45.794;24.150;2023-04-03T02:14:31;9.73;;;7.03;;
21517;SDS011;61765;45.794;24.150;2023-04-03T02:22:39;9.52;;;7.20;;
21517;SDS011;61765;45.794;24.150;2023-04-03T02:30:45;11.98;;;7.43;;
21517;SDS011;61765;45.794;24.150;2023-04-03T02:38:54;13.02;;;7.82;;
21517;SDS011;61765;45.794;24.150;2023-04-03T02:47:00;12.98;;;8.90;;
21517;SDS011;61765;45.794;24.150;2023-04-03T02:55:08;13.23;;;9.98;;
21517;SDS011;61765;45.794;24.150;2023-04-03T03:03:22;14.50;;;10.50;;
21517;SDS011;61765;45.794;24.150;2023-04-03T03:11:30;13.70;;;10.02;;
21517;SDS011;61765;45.794;24.150;2023-04-03T03:19:36;13.45;;;9.48;;
21517;SDS011;61765;45.794;24.150;2023-04-03T03:27:45;13.77;;;10.90;;
21517;SDS011;61765;45.794;24.150;2023-04-03T03:35:51;18.52;;;12.80;;
21517;SDS011;61765;45.794;24.150;2023-04-03T03:43:59;13.65;;;10.45;;
21517;SDS011;61765;45.794;24.150;2023-04-03T03:52:06;16.25;;;11.45;;
21517;SDS011;61765;45.794;24.150;2023-04-03T04:00:15;14.73;;;10.90;;
21517;SDS011;61765;45.794;24.150;2023-04-03T04:08:27;16.38;;;11.55;;
21517;SDS011;61765;45.794;24.150;2023-04-03T04:16:35;17.38;;;11.90;;
21517;SDS011;61765;45.794;24.150;2023-04-03T04:32:54;16.73;;;11.27;;
21517;SDS011;61765;45.794;24.150;2023-04-03T04:41:01;14.13;;;9.75;;
21517;SDS011;61765;45.794;24.150;2023-04-03T04:49:09;11.05;;;9.05;;
21517;SDS011;61765;45.794;24.150;2023-04-03T04:57:14;7.50;;;6.35;;
21517;SDS011;61765;45.794;24.150;2023-04-03T05:05:24;7.72;;;6.65;;
21517;SDS011;61765;45.794;24.150;2023-04-03T05:13:30;10.00;;;6.90;;
21517;SDS011;61765;45.794;24.150;2023-04-03T05:21:38;15.30;;;9.77;;
21517;SDS011;61765;45.794;24.150;2023-04-03T05:29:47;15.65;;;10.35;;
21517;SDS011;61765;45.794;24.150;2023-04-03T05:37:58;14.70;;;11.55;;
21517;SDS011;61765;45.794;24.150;2023-04-03T05:46:08;14.15;;;10.20;;
21517;SDS011;61765;45.794;24.150;2023-04-03T05:54:21;13.32;;;9.25;;
21517;SDS011;61765;45.794;24.150;2023-04-03T06:02:44;12.85;;;9.25;;
21517;SDS011;61765;45.794;24.150;2023-04-03T06:10:58;7.65;;;6.40;;
21517;SDS011;61765;45.794;24.150;2023-04-03T06:19:04;9.05;;;6.18;;
21517;SDS011;61765;45.794;24.150;2023-04-03T06:27:15;7.97;;;5.63;;
21517;SDS011;61765;45.794;24.150;2023-04-03T06:35:21;8.13;;;6.03;;
21517;SDS011;61765;45.794;24.150;2023-04-03T06:43:29;7.05;;;5.75;;
21517;SDS011;61765;45.794;24.150;2023-04-03T06:51:35;10.82;;;6.18;;
21517;SDS011;61765;45.794;24.150;2023-04-03T06:59:44;7.63;;;5.50;;
21517;SDS011;61765;45.794;24.150;2023-04-03T07:07:49;8.27;;;5.22;;
21517;SDS011;61765;45.794;24.150;2023-04-03T07:15:57;7.28;;;5.10;;
21517;SDS011;61765;45.794;24.150;2023-04-03T07:24:03;9.13;;;5.40;;
21517;SDS011;61765;45.794;24.150;2023-04-03T07:32:16;5.30;;;4.55;;
21517;SDS011;61765;45.794;24.150;2023-04-03T07:40:22;5.88;;;4.88;;
21517;SDS011;61765;45.794;24.150;2023-04-03T07:48:30;8.30;;;5.35;;
21517;SDS011;61765;45.794;24.150;2023-04-03T07:56:36;5.57;;;4.32;;
21517;SDS011;61765;45.794;24.150;2023-04-03T08:04:44;5.22;;;4.30;;
21517;SDS011;61765;45.794;24.150;2023-04-03T08:12:50;5.95;;;4.15;;
21517;SDS011;61765;45.794;24.150;2023-04-03T08:20:59;5.70;;;4.32;;
21517;SDS011;61765;45.794;24.150;2023-04-03T08:29:04;7.22;;;4.78;;
21517;SDS011;61765;45.794;24.150;2023-04-03T08:37:12;5.90;;;4.68;;
21517;SDS011;61765;45.794;24.150;2023-04-03T08:45:19;6.40;;;4.57;;
21517;SDS011;61765;45.794;24.150;2023-04-03T08:53:33;5.70;;;4.43;;
21517;SDS011;61765;45.794;24.150;2023-04-03T09:01:44;7.40;;;4.65;;
21517;SDS011;61765;45.794;24.150;2023-04-03T09:09:53;5.55;;;4.65;;
21517;SDS011;61765;45.794;24.150;2023-04-03T09:18:02;5.15;;;4.50;;
21517;SDS011;61765;45.794;24.150;2023-04-03T09:26:14;12.00;;;7.43;;
21517;SDS011;61765;45.794;24.150;2023-04-03T09:34:23;8.07;;;5.35;;
21517;SDS011;61765;45.794;24.150;2023-04-03T09:42:34;8.40;;;5.75;;
21517;SDS011;61765;45.794;24.150;2023-04-03T09:50:57;8.02;;;5.68;;
21517;SDS011;61765;45.794;24.150;2023-04-03T09:59:12;7.93;;;4.95;;
21517;SDS011;61765;45.794;24.150;2023-04-03T10:07:27;6.18;;;4.70;;
21517;SDS011;61765;45.794;24.150;2023-04-03T10:15:42;4.40;;;4.00;;
21517;SDS011;61765;45.794;24.150;2023-04-03T10:23:51;4.68;;;4.18;;
21517;SDS011;61765;45.794;24.150;2023-04-03T10:32:11;7.80;;;4.95;;
21517;SDS011;61765;45.794;24.150;2023-04-03T10:40:29;4.60;;;4.03;;
21517;SDS011;61765;45.794;24.150;2023-04-03T10:48:44;5.63;;;3.83;;
21517;SDS011;61765;45.794;24.150;2023-04-03T10:57:00;6.93;;;5.05;;
21517;SDS011;61765;45.794;24.150;2023-04-03T11:05:17;4.35;;;3.50;;
21517;SDS011;61765;45.794;24.150;2023-04-03T11:13:33;5.85;;;4.30;;
21517;SDS011;61765;45.794;24.150;2023-04-03T11:21:45;7.07;;;4.70;;
21517;SDS011;61765;45.794;24.150;2023-04-03T11:29:58;6.28;;;4.72;;
21517;SDS011;61765;45.794;24.150;2023-04-03T11:38:10;7.78;;;5.15;;
21517;SDS011;61765;45.794;24.150;2023-04-03T11:55:01;9.30;;;5.45;;
21517;SDS011;61765;45.794;24.150;2023-04-03T12:29:07;8.35;;;4.85;;
21517;SDS011;61765;45.794;24.150;2023-04-03T12:37:23;6.05;;;3.35;;
21517;SDS011;61765;45.794;24.150;2023-04-03T12:53:56;3.78;;;3.10;;
21517;SDS011;61765;45.794;24.150;2023-04-03T13:02:15;16.98;;;6.68;;
21517;SDS011;61765;45.794;24.150;2023-04-03T13:10:26;4.03;;;3.53;;
21517;SDS011;61765;45.794;24.150;2023-04-03T13:18:34;5.43;;;4.05;;
21517;SDS011;61765;45.794;24.150;2023-04-03T13:26:41;4.22;;;3.10;;
21517;SDS011;61765;45.794;24.150;2023-04-03T13:34:50;4.47;;;3.35;;
21517;SDS011;61765;45.794;24.150;2023-04-03T13:43:00;6.47;;;4.38;;
21517;SDS011;61765;45.794;24.150;2023-04-03T13:51:19;5.72;;;4.88;;
21517;SDS011;61765;45.794;24.150;2023-04-03T13:59:28;5.97;;;4.70;;
21517;SDS011;61765;45.794;24.150;2023-04-03T14:07:37;6.70;;;5.32;;
21517;SDS011;61765;45.794;24.150;2023-04-03T14:15:43;8.90;;;5.53;;
21517;SDS011;61765;45.794;24.150;2023-04-03T14:23:56;8.35;;;6.32;;
21517;SDS011;61765;45.794;24.150;2023-04-03T14:32:01;7.97;;;5.95;;
21517;SDS011;61765;45.794;24.150;2023-04-03T14:40:19;10.07;;;6.45;;
21517;SDS011;61765;45.794;24.150;2023-04-03T14:48:27;8.35;;;6.43;;
21517;SDS011;61765;45.794;24.150;2023-04-03T14:56:37;9.65;;;7.80;;
21517;SDS011;61765;45.794;24.150;2023-04-03T15:04:43;8.25;;;6.55;;
21517;SDS011;61765;45.794;24.150;2023-04-03T15:12:51;6.55;;;5.45;;
21517;SDS011;61765;45.794;24.150;2023-04-03T15:20:57;8.10;;;5.78;;
21517;SDS011;61765;45.794;24.150;2023-04-03T15:29:06;8.20;;;5.50;;
21517;SDS011;61765;45.794;24.150;2023-04-03T15:37:11;8.10;;;5.95;;
21517;SDS011;61765;45.794;24.150;2023-04-03T15:45:20;9.27;;;5.88;;
21517;SDS011;61765;45.794;24.150;2023-04-03T15:53:28;9.63;;;6.25;;
21517;SDS011;61765;45.794;24.150;2023-04-03T16:01:38;7.38;;;6.10;;
21517;SDS011;61765;45.794;24.150;2023-04-03T16:09:44;8.75;;;6.63;;
21517;SDS011;61765;45.794;24.150;2023-04-03T16:17:52;9.07;;;7.13;;
21517;SDS011;61765;45.794;24.150;2023-04-03T16:26:14;8.18;;;6.63;;
21517;SDS011;61765;45.794;24.150;2023-04-03T16:34:19;10.63;;;7.90;;
21517;SDS011;61765;45.794;24.150;2023-04-03T16:42:27;9.10;;;6.93;;
21517;SDS011;61765;45.794;24.150;2023-04-03T16:50:33;9.07;;;6.82;;
21517;SDS011;61765;45.794;24.150;2023-04-03T16:58:41;12.50;;;8.38;;
21517;SDS011;61765;45.794;24.150;2023-04-03T17:06:46;10.02;;;6.32;;
21517;SDS011;61765;45.794;24.150;2023-04-03T17:14:55;10.48;;;7.32;;
21517;SDS011;61765;45.794;24.150;2023-04-03T17:23:01;7.88;;;5.40;;
21517;SDS011;61765;45.794;24.150;2023-04-03T17:31:09;8.30;;;4.78;;
21517;SDS011;61765;45.794;24.150;2023-04-03T17:39:14;8.73;;;5.45;;
21517;SDS011;61765;45.794;24.150;2023-04-03T17:47:23;7.78;;;5.65;;
21517;SDS011;61765;45.794;24.150;2023-04-03T17:55:29;7.53;;;5.72;;
21517;SDS011;61765;45.794;24.150;2023-04-03T18:03:37;6.30;;;5.22;;
21517;SDS011;61765;45.794;24.150;2023-04-03T18:11:43;7.65;;;5.00;;
21517;SDS011;61765;45.794;24.150;2023-04-03T18:19:52;5.13;;;4.18;;
21517;SDS011;61765;45.794;24.150;2023-04-03T18:27:57;8.25;;;6.10;;
21517;SDS011;61765;45.794;24.150;2023-04-03T18:36:09;5.70;;;4.45;;
21517;SDS011;61765;45.794;24.150;2023-04-03T18:44:35;9.45;;;5.10;;
21517;SDS011;61765;45.794;24.150;2023-04-03T18:52:45;6.80;;;4.80;;
21517;SDS011;61765;45.794;24.150;2023-04-03T19:00:51;7.05;;;4.68;;
21517;SDS011;61765;45.794;24.150;2023-04-03T19:09:00;8.80;;;5.15;;
21517;SDS011;61765;45.794;24.150;2023-04-03T19:17:07;8.38;;;5.88;;
21517;SDS011;61765;45.794;24.150;2023-04-03T19:25:15;7.93;;;5.07;;
21517;SDS011;61765;45.794;24.150;2023-04-03T19:33:21;6.25;;;4.50;;
21517;SDS011;61765;45.794;24.150;2023-04-03T19:41:29;5.88;;;4.30;;
21517;SDS011;61765;45.794;24.150;2023-04-03T19:49:37;6.63;;;4.55;;
21517;SDS011;61765;45.794;24.150;2023-04-03T19:57:46;7.32;;;4.38;;
21517;SDS011;61765;45.794;24.150;2023-04-03T20:05:51;7.45;;;4.45;;
21517;SDS011;61765;45.794;24.150;2023-04-03T20:14:01;6.43;;;4.88;;
21517;SDS011;61765;45.794;24.150;2023-04-03T20:22:10;8.77;;;5.30;;
21517;SDS011;61765;45.794;24.150;2023-04-03T20:30:18;7.53;;;4.82;;
21517;SDS011;61765;45.794;24.150;2023-04-03T20:38:23;8.48;;;5.63;;
21517;SDS011;61765;45.794;24.150;2023-04-03T20:46:32;5.38;;;4.05;;
21517;SDS011;61765;45.794;24.150;2023-04-03T20:54:53;6.55;;;4.53;;
21517;SDS011;61765;45.794;24.150;2023-04-03T21:03:03;5.97;;;4.57;;
21517;SDS011;61765;45.794;24.150;2023-04-03T21:19:49;8.68;;;4.80;;
21517;SDS011;61765;45.794;24.150;2023-04-03T21:27:55;8.40;;;3.80;;
21517;SDS011;61765;45.794;24.150;2023-04-03T21:36:04;6.22;;;3.78;;
21517;SDS011;61765;45.794;24.150;2023-04-03T21:44:09;4.72;;;3.42;;
21517;SDS011;61765;45.794;24.150;2023-04-03T21:52:18;4.45;;;3.25;;
21517;SDS011;61765;45.794;24.150;2023-04-03T22:00:23;4.75;;;3.35;;
21517;SDS011;61765;45.794;24.150;2023-04-03T22:08:32;4.53;;;3.10;;
21517;SDS011;61765;45.794;24.150;2023-04-03T22:16:37;5.18;;;3.17;;
21517;SDS011;61765;45.794;24.150;2023-04-03T22:24:49;3.85;;;3.45;;
21517;SDS011;61765;45.794;24.150;2023-04-03T22:32:56;4.22;;;3.45;;
21517;SDS011;61765;45.794;24.150;2023-04-03T22:41:05;3.67;;;3.25;;
21517;SDS011;61765;45.794;24.150;2023-04-03T22:49:11;4.18;;;3.40;;
21517;SDS011;61765;45.794;24.150;2023-04-03T22:57:19;7.18;;;4.18;;
21517;SDS011;61765;45.794;24.150;2023-04-03T23:05:26;4.82;;;4.15;;
21517;SDS011;61765;45.794;24.150;2023-04-03T23:13:35;4.82;;;3.72;;
21517;SDS011;61765;45.794;24.150;2023-04-03T23:21:40;5.45;;;3.97;;
21517;SDS011;61765;45.794;24.150;2023-04-03T23:29:49;4.68;;;3.78;;
21517;SDS011;61765;45.794;24.150;2023-04-03T23:37:54;5.72;;;4.00;;
21517;SDS011;61765;45.794;24.150;2023-04-03T23:46:02;4.97;;;4.05;;
21517;SDS011;61765;45.794;24.150;2023-04-03T23:54:08;4.40;;;4.00;;
